PWSweather.com
Personal Weather Stations
Station Observations
WAIROAHB
Wairoa, Northern Hawkes Bay -NZ 4108

WairoaNorthern Hawkes Bay -NZ 4108

Lat: -39.04516934, Lon: 177.4263989

Elevation: 156

Station Type: WS3083

http://wairoa.net/weather/index.htm

High Low Average
Temperature 81.3°F27.4°C 61.2°F16.2°C 69.9°F21.1°C
Dew Point 68.3°F20.2°C 53.4°F11.9°C 60.8°F16.0°C
Winds 14.5 mph 23.3 kmh Calm Calm 3.0 mph SE4.8 kmh SE
Wind Gusts 22.1 mph35.6 kmh -- 7.0 mph11.3 kmh
Humidity 99% 39% 76%
Pressure 29.87 in1011.5 mb 29.49 in998.6 mb -
Precipitation 0.19 in4.8 mm - -
Hour Temp Dew Point Humidity Winds Wind Gusts Pressure Precip Precip Rate Daily Precip Total
12:00 AM 61.2°F16.2°C 60.6°F15.9°C 98% Calm Calm -- 29.87 in1011.5 mb 0.02 in0.5 mm 0.00 in0.0 mm 0.02 in0.5 mm
12:10 AM 61.2°F16.2°C 60.6°F15.9°C 98% Calm Calm -- 29.87 in1011.5 mb 0.01 in0.3 mm 0.00 in0.0 mm 0.02 in0.5 mm
12:20 AM 61.2°F16.2°C 60.6°F15.9°C 98% Calm Calm -- 29.87 in1011.5 mb 0.01 in0.3 mm 0.00 in0.0 mm 0.02 in0.5 mm
12:30 AM 61.2°F16.2°C 60.6°F15.9°C 98% Calm Calm -- 29.86 in1011.2 mb 0.01 in0.3 mm 0.00 in0.0 mm 0.02 in0.5 mm
12:40 AM 61.2°F16.2°C 60.6°F15.9°C 98% Calm Calm -- 29.86 in1011.2 mb 0.01 in0.3 mm 0.00 in0.0 mm 0.02 in0.5 mm
12:50 AM 61.2°F16.2°C 60.6°F15.9°C 98% Calm Calm -- 29.85 in1010.8 mb 0.02 in0.5 mm 0.06 in1.5 mm 0.04 in1.0 mm
01:00 AM 61.2°F16.2°C 60.6°F15.9°C 98% Calm Calm -- 29.84 in1010.5 mb 0.01 in0.3 mm 0.00 in0.0 mm 0.04 in1.0 mm
01:10 AM 61.2°F16.2°C 60.6°F15.9°C 98% Calm Calm -- 29.84 in1010.5 mb 0.01 in0.3 mm 0.00 in0.0 mm 0.04 in1.0 mm
01:20 AM 61.2°F16.2°C 60.6°F15.9°C 98% Calm Calm -- 29.83 in1010.2 mb 0.02 in0.5 mm 0.06 in1.5 mm 0.05 in1.3 mm
01:30 AM 61.2°F16.2°C 60.6°F15.9°C 98% Calm Calm -- 29.83 in1010.2 mb 0.04 in1.0 mm 0.12 in3.0 mm 0.06 in1.5 mm
01:40 AM 61.3°F16.3°C 60.8°F16.0°C 98% Calm Calm -- 29.81 in1009.5 mb 0.04 in1.0 mm 0.00 in0.0 mm 0.06 in1.5 mm
01:50 AM 61.2°F16.2°C 60.6°F15.9°C 98% Calm Calm -- 29.80 in1009.1 mb 0.04 in1.0 mm 0.00 in0.0 mm 0.07 in1.8 mm
02:00 AM 61.2°F16.2°C 60.6°F15.9°C 98% Calm Calm -- 29.80 in1009.1 mb 0.04 in1.0 mm 0.00 in0.0 mm 0.07 in1.8 mm
02:10 AM 61.2°F16.2°C 60.6°F15.9°C 98% Calm Calm -- 29.80 in1009.1 mb 0.04 in1.0 mm 0.00 in0.0 mm 0.07 in1.8 mm
02:20 AM 61.3°F16.3°C 60.8°F16.0°C 98% Calm Calm -- 29.80 in1009.1 mb 0.02 in0.5 mm 0.00 in0.0 mm 0.07 in1.8 mm
02:30 AM 61.5°F16.4°C 61.0°F16.1°C 98% Calm Calm 3.1 mph5.0 kmh 29.80 in1009.1 mb 0.01 in0.3 mm 0.00 in0.0 mm 0.07 in1.8 mm
02:40 AM 61.3°F16.3°C 60.8°F16.0°C 98% Calm Calm 1.6 mph2.6 kmh 29.80 in1009.1 mb 0.02 in0.5 mm 0.06 in1.5 mm 0.08 in2.0 mm
02:50 AM 61.3°F16.3°C 60.8°F16.0°C 98% Calm Calm -- 29.79 in1008.8 mb 0.01 in0.3 mm 0.00 in0.0 mm 0.08 in2.0 mm
03:00 AM 61.2°F16.2°C 60.6°F15.9°C 98% Calm Calm -- 29.78 in1008.5 mb 0.02 in0.5 mm 0.01 in0.3 mm 0.09 in2.3 mm
03:10 AM 61.3°F16.3°C 60.8°F16.0°C 98% Calm Calm -- 29.78 in1008.5 mb 0.02 in0.5 mm 0.00 in0.0 mm 0.09 in2.3 mm
03:20 AM 61.3°F16.3°C 60.8°F16.0°C 98% Calm Calm -- 29.78 in1008.5 mb 0.02 in0.5 mm 0.00 in0.0 mm 0.09 in2.3 mm
03:30 AM 61.3°F16.3°C 60.8°F16.0°C 98% Calm Calm -- 29.78 in1008.5 mb 0.01 in0.3 mm 0.00 in0.0 mm 0.09 in2.3 mm
04:00 AM 61.3°F16.3°C 60.8°F16.0°C 98% Calm Calm -- 29.75 in1007.5 mb 0.01 in0.3 mm 0.00 in0.0 mm 0.11 in2.8 mm
04:10 AM 61.2°F16.2°C 60.6°F15.9°C 98% 4.5 mph SE7.2 kmh SE 8.3 mph13.4 kmh 29.75 in1007.5 mb 0.01 in0.3 mm 0.00 in0.0 mm 0.11 in2.8 mm
04:20 AM 61.2°F16.2°C 60.6°F15.9°C 98% Calm Calm 8.3 mph13.4 kmh 29.76 in1007.8 mb 0.01 in0.3 mm 0.00 in0.0 mm 0.11 in2.8 mm
04:30 AM 61.5°F16.4°C 61.0°F16.1°C 98% Calm Calm -- 29.75 in1007.5 mb 0.01 in0.3 mm 0.00 in0.0 mm 0.11 in2.8 mm
04:40 AM 61.5°F16.4°C 61.0°F16.1°C 98% 0.7 mph ENE1.1 kmh ENE 6.9 mph11.1 kmh 29.75 in1007.5 mb 0.00 in0.0 mm 0.00 in0.0 mm 0.11 in2.8 mm
04:50 AM 61.9°F16.6°C 61.3°F16.3°C 98% 4.5 mph E7.2 kmh E 7.6 mph12.2 kmh 29.75 in1007.5 mb 0.01 in0.3 mm 0.06 in1.5 mm 0.12 in3.0 mm
05:00 AM 62.2°F16.8°C 61.7°F16.5°C 98% 2.2 mph E3.5 kmh E 7.6 mph12.2 kmh 29.74 in1007.1 mb 0.02 in0.5 mm 0.01 in0.3 mm 0.13 in3.3 mm
05:10 AM 62.2°F16.8°C 61.7°F16.5°C 98% Calm Calm 3.8 mph6.1 kmh 29.74 in1007.1 mb 0.02 in0.5 mm 0.00 in0.0 mm 0.13 in3.3 mm
05:20 AM 62.2°F16.8°C 61.7°F16.5°C 98% Calm Calm -- 29.74 in1007.1 mb 0.02 in0.5 mm 0.00 in0.0 mm 0.13 in3.3 mm
05:30 AM 62.4°F16.9°C 61.9°F16.6°C 98% Calm Calm 4.5 mph7.2 kmh 29.73 in1006.8 mb 0.02 in0.5 mm 0.00 in0.0 mm 0.13 in3.3 mm
05:40 AM 62.2°F16.8°C 61.7°F16.5°C 98% Calm Calm -- 29.73 in1006.8 mb 0.04 in1.0 mm 0.12 in3.0 mm 0.14 in3.6 mm
05:50 AM 62.1°F16.7°C 61.5°F16.4°C 98% Calm Calm -- 29.72 in1006.4 mb 0.04 in1.0 mm 0.00 in0.0 mm 0.15 in3.8 mm
06:00 AM 62.1°F16.7°C 61.5°F16.4°C 98% Calm Calm -- 29.72 in1006.4 mb 0.04 in1.0 mm 0.00 in0.0 mm 0.17 in4.3 mm
06:10 AM 62.2°F16.8°C 61.7°F16.5°C 98% Calm Calm -- 29.70 in1005.8 mb 0.04 in1.0 mm 0.00 in0.0 mm 0.17 in4.3 mm
06:20 AM 62.4°F16.9°C 61.9°F16.6°C 98% Calm Calm -- 29.68 in1005.1 mb 0.04 in1.0 mm 0.00 in0.0 mm 0.17 in4.3 mm
06:30 AM 62.4°F16.9°C 61.9°F16.6°C 98% Calm Calm -- 29.70 in1005.8 mb 0.05 in1.3 mm 0.06 in1.5 mm 0.18 in4.6 mm
06:40 AM 62.8°F17.1°C 61.9°F16.6°C 97% Calm Calm -- 29.70 in1005.8 mb 0.04 in1.0 mm 0.00 in0.0 mm 0.18 in4.6 mm
06:50 AM 63.1°F17.3°C 62.3°F16.8°C 97% Calm Calm -- 29.70 in1005.8 mb 0.02 in0.5 mm 0.00 in0.0 mm 0.18 in4.6 mm
07:00 AM 63.5°F17.5°C 62.7°F17.1°C 97% Calm Calm -- 29.70 in1005.8 mb 0.01 in0.3 mm 0.00 in0.0 mm 0.18 in4.6 mm
07:10 AM 63.7°F17.6°C 62.8°F17.1°C 97% Calm Calm -- 29.69 in1005.4 mb 0.01 in0.3 mm 0.00 in0.0 mm 0.18 in4.6 mm
07:20 AM 63.9°F17.7°C 63.0°F17.2°C 97% Calm Calm -- 29.68 in1005.1 mb 0.01 in0.3 mm 0.00 in0.0 mm 0.18 in4.6 mm
07:30 AM 64.8°F18.2°C 64.5°F18.1°C 99% Calm Calm 3.1 mph5.0 kmh 29.69 in1005.4 mb 0.00 in0.0 mm 0.00 in0.0 mm 0.18 in4.6 mm
07:40 AM 65.7°F18.7°C 65.4°F18.6°C 99% Calm Calm -- 29.68 in1005.1 mb 0.00 in0.0 mm 0.00 in0.0 mm 0.18 in4.6 mm
07:50 AM 66.2°F19.0°C 65.9°F18.8°C 99% 3.1 mph SE5.0 kmh SE 4.5 mph7.2 kmh 29.68 in1005.1 mb 0.00 in0.0 mm 0.00 in0.0 mm 0.18 in4.6 mm
08:00 AM 67.1°F19.5°C 66.8°F19.3°C 99% Calm Calm 5.4 mph8.7 kmh 29.67 in1004.7 mb 0.00 in0.0 mm 0.00 in0.0 mm 0.18 in4.6 mm
08:10 AM 67.3°F19.6°C 66.7°F19.3°C 98% Calm Calm 4.5 mph7.2 kmh 29.67 in1004.7 mb 0.00 in0.0 mm 0.00 in0.0 mm 0.18 in4.6 mm
08:20 AM 68.5°F20.3°C 67.4°F19.7°C 96% Calm Calm -- 29.66 in1004.4 mb 0.00 in0.0 mm 0.00 in0.0 mm 0.18 in4.6 mm
08:30 AM 70.2°F21.2°C 68.1°F20.1°C 93% Calm Calm -- 29.65 in1004.1 mb 0.00 in0.0 mm 0.00 in0.0 mm 0.18 in4.6 mm
08:40 AM 71.8°F22.1°C 67.4°F19.7°C 86% Calm Calm -- 29.65 in1004.1 mb 0.00 in0.0 mm 0.00 in0.0 mm 0.18 in4.6 mm
08:50 AM 71.8°F22.1°C 67.1°F19.5°C 85% Calm Calm -- 29.64 in1003.7 mb 0.00 in0.0 mm 0.00 in0.0 mm 0.18 in4.6 mm
09:00 AM 73.2°F22.9°C 68.1°F20.1°C 84% Calm Calm -- 29.63 in1003.4 mb 0.00 in0.0 mm 0.00 in0.0 mm 0.18 in4.6 mm
09:10 AM 76.1°F24.5°C 67.6°F19.8°C 75% Calm Calm -- 29.62 in1003.0 mb 0.00 in0.0 mm 0.00 in0.0 mm 0.18 in4.6 mm
09:20 AM 77.0°F25.0°C 67.3°F19.6°C 72% 3.1 mph ENE5.0 kmh ENE 4.5 mph7.2 kmh 29.62 in1003.0 mb 0.00 in0.0 mm 0.00 in0.0 mm 0.18 in4.6 mm
09:30 AM 75.2°F24.0°C 66.8°F19.3°C 75% 1.6 mph ENE2.6 kmh ENE 6.9 mph11.1 kmh 29.61 in1002.7 mb 0.00 in0.0 mm 0.00 in0.0 mm 0.18 in4.6 mm
09:40 AM 75.4°F24.1°C 67.7°F19.8°C 77% 3.1 mph E5.0 kmh E 6.9 mph11.1 kmh 29.60 in1002.4 mb 0.00 in0.0 mm 0.00 in0.0 mm 0.18 in4.6 mm
09:50 AM 74.1°F23.4°C 66.5°F19.2°C 77% 3.8 mph ESE6.1 kmh ESE 12.1 mph19.5 kmh 29.59 in1002.0 mb 0.00 in0.0 mm 0.00 in0.0 mm 0.18 in4.6 mm
10:00 AM 74.8°F23.8°C 67.6°F19.8°C 78% 3.1 mph ESE5.0 kmh ESE 8.3 mph13.4 kmh 29.59 in1002.0 mb 0.00 in0.0 mm 0.00 in0.0 mm 0.18 in4.6 mm
10:30 AM 75.6°F24.2°C 67.1°F19.5°C 75% 3.1 mph NNE5.0 kmh NNE 9.2 mph14.8 kmh 29.57 in1001.4 mb 0.00 in0.0 mm 0.00 in0.0 mm 0.18 in4.6 mm
10:40 AM 76.1°F24.5°C 67.3°F19.6°C 74% Calm Calm 5.4 mph8.7 kmh 29.57 in1001.4 mb 0.00 in0.0 mm 0.00 in0.0 mm 0.18 in4.6 mm
10:50 AM 79.3°F26.3°C 67.9°F19.9°C 68% 3.1 mph N5.0 kmh N 4.5 mph7.2 kmh 29.57 in1001.4 mb 0.00 in0.0 mm 0.00 in0.0 mm 0.18 in4.6 mm
11:00 AM 78.4°F25.8°C 67.5°F19.7°C 69% Calm Calm 4.5 mph7.2 kmh 29.56 in1001.0 mb 0.00 in0.0 mm 0.00 in0.0 mm 0.18 in4.6 mm
11:10 AM 80.1°F26.7°C 67.7°F19.8°C 66% Calm Calm 4.5 mph7.2 kmh 29.56 in1001.0 mb 0.01 in0.3 mm 0.06 in1.5 mm 0.19 in4.8 mm
11:20 AM 78.8°F26.0°C 66.5°F19.2°C 66% 2.2 mph ENE3.5 kmh ENE 7.6 mph12.2 kmh 29.55 in1000.7 mb 0.01 in0.3 mm 0.00 in0.0 mm 0.19 in4.8 mm
11:30 AM 79.7°F26.5°C 67.8°F19.9°C 67% Calm Calm 5.4 mph8.7 kmh 29.54 in1000.3 mb 0.01 in0.3 mm 0.00 in0.0 mm 0.19 in4.8 mm
11:40 AM 79.2°F26.2°C 66.9°F19.4°C 66% 6.0 mph NE9.7 kmh NE 13.6 mph21.9 kmh 29.54 in1000.3 mb 0.01 in0.3 mm 0.00 in0.0 mm 0.19 in4.8 mm
11:50 AM 78.4°F25.8°C 68.3°F20.2°C 71% 3.8 mph NE6.1 kmh NE 9.8 mph15.8 kmh 29.54 in1000.3 mb 0.01 in0.3 mm 0.00 in0.0 mm 0.19 in4.8 mm
12:00 PM 79.3°F26.3°C 67.0°F19.4°C 66% 4.5 mph NNE7.2 kmh NNE 11.4 mph18.3 kmh 29.54 in1000.3 mb 0.01 in0.3 mm 0.00 in0.0 mm 0.19 in4.8 mm
12:10 PM 79.2°F26.2°C 66.9°F19.4°C 66% 5.4 mph NNE8.7 kmh NNE 14.5 mph23.3 kmh 29.53 in1000.0 mb 0.00 in0.0 mm 0.00 in0.0 mm 0.19 in4.8 mm
12:20 PM 80.2°F26.8°C 67.9°F19.9°C 66% 9.2 mph N14.8 kmh N 14.5 mph23.3 kmh 29.53 in1000.0 mb 0.00 in0.0 mm 0.00 in0.0 mm 0.19 in4.8 mm
12:30 PM 79.3°F26.3°C 67.5°F19.7°C 67% 6.0 mph NNE9.7 kmh NNE 14.5 mph23.3 kmh 29.52 in999.7 mb 0.00 in0.0 mm 0.00 in0.0 mm 0.19 in4.8 mm
12:40 PM 77.9°F25.5°C 66.5°F19.2°C 68% 4.5 mph N7.2 kmh N 15.9 mph25.6 kmh 29.52 in999.7 mb 0.00 in0.0 mm 0.00 in0.0 mm 0.19 in4.8 mm
12:50 PM 79.2°F26.2°C 67.7°F19.8°C 68% 2.2 mph NW3.5 kmh NW 10.7 mph17.2 kmh 29.52 in999.7 mb 0.00 in0.0 mm 0.00 in0.0 mm 0.19 in4.8 mm
01:00 PM 78.8°F26.0°C 59.7°F15.4°C 52% 10.7 mph N17.2 kmh N 17.4 mph28.0 kmh 29.52 in999.7 mb 0.00 in0.0 mm 0.00 in0.0 mm 0.19 in4.8 mm
01:10 PM 80.1°F26.7°C 59.8°F15.4°C 50% 9.2 mph NNW14.8 kmh NNW 19.0 mph30.6 kmh 29.52 in999.7 mb 0.00 in0.0 mm 0.00 in0.0 mm 0.19 in4.8 mm
01:20 PM 80.2°F26.8°C 61.1°F16.2°C 52% 6.0 mph NNW9.7 kmh NNW 18.3 mph29.5 kmh 29.52 in999.7 mb 0.00 in0.0 mm 0.00 in0.0 mm 0.19 in4.8 mm
01:30 PM 80.6°F27.0°C 59.7°F15.4°C 49% 8.3 mph NW13.4 kmh NW 15.9 mph25.6 kmh 29.52 in999.7 mb 0.00 in0.0 mm 0.00 in0.0 mm 0.19 in4.8 mm
01:40 PM 80.1°F26.7°C 59.8°F15.4°C 50% 8.3 mph NW13.4 kmh NW 15.9 mph25.6 kmh 29.52 in999.7 mb 0.00 in0.0 mm 0.00 in0.0 mm 0.19 in4.8 mm
01:50 PM 80.2°F26.8°C 58.8°F14.9°C 48% 12.1 mph NW19.5 kmh NW 16.8 mph27.0 kmh 29.51 in999.3 mb 0.00 in0.0 mm 0.00 in0.0 mm 0.19 in4.8 mm
02:00 PM 80.1°F26.7°C 58.1°F14.5°C 47% 6.9 mph NW11.1 kmh NW 17.4 mph28.0 kmh 29.51 in999.3 mb 0.00 in0.0 mm 0.00 in0.0 mm 0.19 in4.8 mm
02:10 PM 80.8°F27.1°C 56.9°F13.8°C 44% 5.4 mph NW8.7 kmh NW 13.0 mph20.9 kmh 29.51 in999.3 mb 0.00 in0.0 mm 0.00 in0.0 mm 0.19 in4.8 mm
02:20 PM 80.1°F26.7°C 57.5°F14.2°C 46% 6.0 mph NNW9.7 kmh NNW 15.9 mph25.6 kmh 29.50 in999.0 mb 0.00 in0.0 mm 0.00 in0.0 mm 0.19 in4.8 mm
02:30 PM 81.1°F27.3°C 55.9°F13.3°C 42% 9.2 mph NW14.8 kmh NW 15.9 mph25.6 kmh 29.50 in999.0 mb 0.00 in0.0 mm 0.00 in0.0 mm 0.19 in4.8 mm
02:40 PM 80.6°F27.0°C 55.4°F13.0°C 42% 8.3 mph NW13.4 kmh NW 16.8 mph27.0 kmh 29.50 in999.0 mb 0.00 in0.0 mm 0.00 in0.0 mm 0.19 in4.8 mm
02:50 PM 81.1°F27.3°C 55.9°F13.3°C 42% 13.6 mph NW21.9 kmh NW 19.0 mph30.6 kmh 29.50 in999.0 mb 0.00 in0.0 mm 0.00 in0.0 mm 0.19 in4.8 mm
03:00 PM 81.1°F27.3°C 55.2°F12.9°C 41% 9.2 mph NW14.8 kmh NW 19.0 mph30.6 kmh 29.50 in999.0 mb 0.00 in0.0 mm 0.00 in0.0 mm 0.19 in4.8 mm
03:10 PM 81.1°F27.3°C 55.9°F13.3°C 42% 9.8 mph NW15.8 kmh NW 18.3 mph29.5 kmh 29.50 in999.0 mb 0.00 in0.0 mm 0.00 in0.0 mm 0.19 in4.8 mm
03:20 PM 81.0°F27.2°C 55.1°F12.8°C 41% 6.9 mph NW11.1 kmh NW 16.8 mph27.0 kmh 29.50 in999.0 mb 0.00 in0.0 mm 0.00 in0.0 mm 0.19 in4.8 mm
03:30 PM 81.1°F27.3°C 55.2°F12.9°C 41% 6.0 mph NW9.7 kmh NW 22.1 mph35.6 kmh 29.50 in999.0 mb 0.00 in0.0 mm 0.00 in0.0 mm 0.19 in4.8 mm
03:40 PM 80.6°F27.0°C 53.4°F11.9°C 39% 14.5 mph NNW23.3 kmh NNW 17.4 mph28.0 kmh 29.50 in999.0 mb 0.00 in0.0 mm 0.00 in0.0 mm 0.19 in4.8 mm
03:50 PM 80.4°F26.9°C 55.3°F12.9°C 42% 8.3 mph NNW13.4 kmh NNW 20.6 mph33.2 kmh 29.50 in999.0 mb 0.00 in0.0 mm 0.00 in0.0 mm 0.19 in4.8 mm
04:00 PM 80.4°F26.9°C 55.9°F13.3°C 43% 9.2 mph NW14.8 kmh NW 19.0 mph30.6 kmh 29.50 in999.0 mb 0.00 in0.0 mm 0.00 in0.0 mm 0.19 in4.8 mm
04:10 PM 80.6°F27.0°C 55.4°F13.0°C 42% 12.1 mph NNW19.5 kmh NNW 19.0 mph30.6 kmh 29.50 in999.0 mb 0.00 in0.0 mm 0.00 in0.0 mm 0.19 in4.8 mm
04:20 PM 80.4°F26.9°C 55.9°F13.3°C 43% 13.0 mph NW20.9 kmh NW 20.6 mph33.2 kmh 29.50 in999.0 mb 0.00 in0.0 mm 0.00 in0.0 mm 0.19 in4.8 mm
04:30 PM 79.7°F26.5°C 55.9°F13.3°C 44% 11.4 mph N18.3 kmh N 20.6 mph33.2 kmh 29.50 in999.0 mb 0.00 in0.0 mm 0.00 in0.0 mm 0.19 in4.8 mm
04:40 PM 79.7°F26.5°C 57.1°F13.9°C 46% 14.5 mph N23.3 kmh N 19.0 mph30.6 kmh 29.49 in998.6 mb 0.00 in0.0 mm 0.00 in0.0 mm 0.19 in4.8 mm
04:50 PM 81.3°F27.4°C 58.0°F14.4°C 45% 10.7 mph N17.2 kmh N 17.4 mph28.0 kmh 29.49 in998.6 mb 0.00 in0.0 mm 0.00 in0.0 mm 0.19 in4.8 mm
05:00 PM 79.5°F26.4°C 57.0°F13.9°C 46% 11.4 mph NW18.3 kmh NW 22.1 mph35.6 kmh 29.49 in998.6 mb 0.00 in0.0 mm 0.00 in0.0 mm 0.19 in4.8 mm
05:10 PM 78.3°F25.7°C 57.0°F13.9°C 48% 9.2 mph NNW14.8 kmh NNW 17.4 mph28.0 kmh 29.49 in998.6 mb 0.00 in0.0 mm 0.00 in0.0 mm 0.19 in4.8 mm
05:20 PM 78.4°F25.8°C 57.2°F14.0°C 48% 8.3 mph NNW13.4 kmh NNW 17.4 mph28.0 kmh 29.49 in998.6 mb 0.00 in0.0 mm 0.00 in0.0 mm 0.19 in4.8 mm
05:30 PM 77.5°F25.3°C 56.3°F13.5°C 48% 9.2 mph N14.8 kmh N 15.9 mph25.6 kmh 29.49 in998.6 mb 0.00 in0.0 mm 0.00 in0.0 mm 0.19 in4.8 mm
05:40 PM 76.8°F24.9°C 56.2°F13.4°C 49% 10.7 mph NW17.2 kmh NW 16.8 mph27.0 kmh 29.50 in999.0 mb 0.00 in0.0 mm 0.00 in0.0 mm 0.19 in4.8 mm
05:50 PM 76.5°F24.7°C 55.9°F13.3°C 49% 9.8 mph NW15.8 kmh NW 16.8 mph27.0 kmh 29.49 in998.6 mb 0.00 in0.0 mm 0.00 in0.0 mm 0.19 in4.8 mm
06:00 PM 76.3°F24.6°C 56.9°F13.8°C 51% 6.0 mph NW9.7 kmh NW 13.0 mph20.9 kmh 29.50 in999.0 mb 0.00 in0.0 mm 0.00 in0.0 mm 0.19 in4.8 mm
06:10 PM 73.6°F23.1°C 56.4°F13.6°C 55% 6.9 mph NW11.1 kmh NW 14.5 mph23.3 kmh 29.50 in999.0 mb 0.00 in0.0 mm 0.00 in0.0 mm 0.19 in4.8 mm
06:20 PM 72.1°F22.3°C 57.0°F13.9°C 59% 7.6 mph NW12.2 kmh NW 13.6 mph21.9 kmh 29.50 in999.0 mb 0.00 in0.0 mm 0.00 in0.0 mm 0.19 in4.8 mm
06:30 PM 72.0°F22.2°C 57.8°F14.3°C 61% 5.4 mph NW8.7 kmh NW 11.4 mph18.3 kmh 29.51 in999.3 mb 0.00 in0.0 mm 0.00 in0.0 mm 0.19 in4.8 mm
06:40 PM 71.4°F21.9°C 58.2°F14.6°C 63% 3.1 mph NW5.0 kmh NW 9.8 mph15.8 kmh 29.51 in999.3 mb 0.00 in0.0 mm 0.00 in0.0 mm 0.19 in4.8 mm
06:50 PM 70.9°F21.6°C 57.7°F14.3°C 63% 4.5 mph NNW7.2 kmh NNW 9.2 mph14.8 kmh 29.51 in999.3 mb 0.00 in0.0 mm 0.00 in0.0 mm 0.19 in4.8 mm
07:00 PM 70.9°F21.6°C 58.6°F14.8°C 65% 3.8 mph NNW6.1 kmh NNW 7.6 mph12.2 kmh 29.52 in999.7 mb 0.00 in0.0 mm 0.00 in0.0 mm 0.19 in4.8 mm
07:10 PM 71.2°F21.8°C 58.9°F14.9°C 65% 4.5 mph N7.2 kmh N 7.6 mph12.2 kmh 29.51 in999.3 mb 0.00 in0.0 mm 0.00 in0.0 mm 0.19 in4.8 mm
07:40 PM 69.6°F20.9°C 58.6°F14.8°C 68% 1.6 mph N2.6 kmh N 6.0 mph9.7 kmh 29.52 in999.7 mb 0.00 in0.0 mm 0.00 in0.0 mm 0.19 in4.8 mm
07:50 PM 69.6°F20.9°C 59.0°F15.0°C 69% 1.6 mph NW2.6 kmh NW 5.4 mph8.7 kmh 29.53 in1000.0 mb 0.00 in0.0 mm 0.00 in0.0 mm 0.19 in4.8 mm
08:00 PM 68.7°F20.4°C 58.2°F14.6°C 69% Calm Calm 3.8 mph6.1 kmh 29.53 in1000.0 mb 0.00 in0.0 mm 0.00 in0.0 mm 0.19 in4.8 mm
08:10 PM 68.5°F20.3°C 58.8°F14.9°C 71% 1.6 mph NW2.6 kmh NW 3.8 mph6.1 kmh 29.53 in1000.0 mb 0.00 in0.0 mm 0.00 in0.0 mm 0.19 in4.8 mm
08:20 PM 67.6°F19.8°C 57.9°F14.4°C 71% 3.1 mph N5.0 kmh N 4.5 mph7.2 kmh 29.53 in1000.0 mb 0.00 in0.0 mm 0.00 in0.0 mm 0.19 in4.8 mm
08:30 PM 66.7°F19.3°C 57.1°F13.9°C 71% 3.1 mph N5.0 kmh N 6.0 mph9.7 kmh 29.54 in1000.3 mb 0.00 in0.0 mm 0.00 in0.0 mm 0.19 in4.8 mm
08:40 PM 66.9°F19.4°C 57.6°F14.2°C 72% 3.1 mph N5.0 kmh N 5.4 mph8.7 kmh 29.53 in1000.0 mb 0.00 in0.0 mm 0.00 in0.0 mm 0.19 in4.8 mm
08:50 PM 66.6°F19.2°C 57.3°F14.1°C 72% 3.1 mph N5.0 kmh N 4.5 mph7.2 kmh 29.53 in1000.0 mb 0.00 in0.0 mm 0.00 in0.0 mm 0.19 in4.8 mm
09:00 PM 66.4°F19.1°C 57.5°F14.2°C 73% 3.1 mph N5.0 kmh N 5.4 mph8.7 kmh 29.53 in1000.0 mb 0.00 in0.0 mm 0.00 in0.0 mm 0.19 in4.8 mm
09:10 PM 66.0°F18.9°C 57.9°F14.4°C 75% 5.4 mph N8.7 kmh N 8.3 mph13.4 kmh 29.52 in999.7 mb 0.00 in0.0 mm 0.00 in0.0 mm 0.19 in4.8 mm
09:20 PM 66.0°F18.9°C 58.3°F14.6°C 76% 2.2 mph N3.5 kmh N 6.9 mph11.1 kmh 29.52 in999.7 mb 0.00 in0.0 mm 0.00 in0.0 mm 0.19 in4.8 mm
09:30 PM 65.3°F18.5°C 57.9°F14.4°C 77% 2.2 mph N3.5 kmh N 4.5 mph7.2 kmh 29.53 in1000.0 mb 0.00 in0.0 mm 0.00 in0.0 mm 0.19 in4.8 mm
09:40 PM 65.3°F18.5°C 58.3°F14.6°C 78% 2.2 mph N3.5 kmh N 4.5 mph7.2 kmh 29.53 in1000.0 mb 0.00 in0.0 mm 0.00 in0.0 mm 0.19 in4.8 mm
09:50 PM 64.8°F18.2°C 58.1°F14.5°C 79% 2.2 mph NW3.5 kmh NW 3.8 mph6.1 kmh 29.53 in1000.0 mb 0.00 in0.0 mm 0.00 in0.0 mm 0.19 in4.8 mm
10:00 PM 64.4°F18.0°C 58.5°F14.7°C 81% 2.2 mph N3.5 kmh N 3.8 mph6.1 kmh 29.53 in1000.0 mb 0.00 in0.0 mm 0.00 in0.0 mm 0.19 in4.8 mm
10:10 PM 63.9°F17.7°C 58.3°F14.6°C 82% 3.1 mph NW5.0 kmh NW 6.0 mph9.7 kmh 29.53 in1000.0 mb 0.00 in0.0 mm 0.00 in0.0 mm 0.19 in4.8 mm
10:20 PM 63.5°F17.5°C 58.6°F14.8°C 84% 2.2 mph NNW3.5 kmh NNW 6.0 mph9.7 kmh 29.53 in1000.0 mb 0.00 in0.0 mm 0.00 in0.0 mm 0.19 in4.8 mm
10:30 PM 63.1°F17.3°C 58.2°F14.6°C 84% 2.2 mph NNW3.5 kmh NNW 4.5 mph7.2 kmh 29.53 in1000.0 mb 0.00 in0.0 mm 0.00 in0.0 mm 0.19 in4.8 mm
10:40 PM 62.8°F17.1°C 58.5°F14.7°C 86% 2.2 mph NW3.5 kmh NW 5.4 mph8.7 kmh 29.53 in1000.0 mb 0.00 in0.0 mm 0.00 in0.0 mm 0.19 in4.8 mm
10:50 PM 62.8°F17.1°C 58.5°F14.7°C 86% 2.2 mph NNW3.5 kmh NNW 5.4 mph8.7 kmh 29.54 in1000.3 mb 0.00 in0.0 mm 0.00 in0.0 mm 0.19 in4.8 mm
11:00 PM 62.8°F17.1°C 58.5°F14.7°C 86% 3.8 mph NNW6.1 kmh NNW 6.0 mph9.7 kmh 29.54 in1000.3 mb 0.00 in0.0 mm 0.00 in0.0 mm 0.14 in3.6 mm
11:10 PM 62.8°F17.1°C 58.9°F14.9°C 87% 2.2 mph N3.5 kmh N 6.0 mph9.7 kmh 29.54 in1000.3 mb 0.00 in0.0 mm 0.00 in0.0 mm 0.14 in3.6 mm
11:20 PM 63.0°F17.2°C 58.7°F14.8°C 86% 2.2 mph NNW3.5 kmh NNW 6.0 mph9.7 kmh 29.54 in1000.3 mb 0.00 in0.0 mm 0.00 in0.0 mm 0.14 in3.6 mm
11:30 PM 62.2°F16.8°C 58.3°F14.6°C 87% 3.8 mph W6.1 kmh W 4.5 mph7.2 kmh 29.54 in1000.3 mb 0.00 in0.0 mm 0.00 in0.0 mm 0.14 in3.6 mm
11:40 PM 61.9°F16.6°C 58.6°F14.8°C 89% 3.1 mph WNW5.0 kmh WNW 4.5 mph7.2 kmh 29.55 in1000.7 mb 0.00 in0.0 mm 0.00 in0.0 mm 0.14 in3.6 mm
11:50 PM 61.5°F16.4°C 58.6°F14.8°C 90% 3.8 mph NW6.1 kmh NW 5.4 mph8.7 kmh 29.54 in1000.3 mb 0.00 in0.0 mm 0.00 in0.0 mm 0.14 in3.6 mm